createdAt,value
2018-12-02T00:00:54.997Z,7.37
2018-12-02T00:03:24.199Z,6.33
2018-12-02T00:05:54.274Z,9.23
2018-12-02T00:08:23.224Z,7.20
2018-12-02T00:10:52.467Z,7.77
2018-12-02T00:13:21.506Z,5.50
2018-12-02T00:15:51.682Z,5.67
2018-12-02T00:18:20.684Z,5.83
2018-12-02T00:20:49.609Z,8.33
2018-12-02T00:23:18.542Z,7.30
2018-12-02T00:25:47.450Z,4.43
2018-12-02T00:28:17.317Z,6.83
2018-12-02T00:30:46.192Z,8.03
2018-12-02T00:33:16.090Z,9.93
2018-12-02T00:35:44.987Z,6.40
2018-12-02T00:38:14.000Z,8.60
2018-12-02T00:40:42.791Z,5.90
2018-12-02T00:43:11.660Z,5.53
2018-12-02T00:45:42.704Z,10.47
2018-12-02T00:48:11.782Z,7.60
2018-12-02T00:50:41.091Z,5.60
2018-12-02T00:53:10.339Z,10.83
2018-12-02T00:55:41.026Z,9.87
2018-12-02T00:58:11.909Z,7.57
2018-12-02T01:00:41.730Z,6.73
2018-12-02T01:03:11.697Z,6.53
2018-12-02T01:05:40.500Z,8.60
2018-12-02T01:08:09.367Z,6.30
2018-12-02T01:10:38.271Z,8.30
2018-12-02T01:13:09.718Z,7.23
2018-12-02T01:15:39.566Z,5.73
2018-12-02T01:18:09.206Z,4.83
2018-12-02T01:20:38.719Z,5.87
2018-12-02T01:23:07.867Z,6.47
2018-12-02T01:25:37.162Z,7.73
2018-12-02T01:28:06.779Z,6.40
2018-12-02T01:30:35.836Z,4.97
2018-12-02T01:33:05.197Z,4.70
2018-12-02T01:35:35.089Z,8.13
2018-12-02T01:38:05.112Z,6.20
2018-12-02T01:40:34.071Z,5.87
2018-12-02T01:43:03.170Z,7.77
2018-12-02T01:45:32.288Z,6.00
2018-12-02T01:48:01.152Z,5.10
2018-12-02T01:50:34.787Z,5.37
2018-12-02T01:53:05.180Z,8.40
2018-12-02T01:55:34.094Z,7.80
2018-12-02T01:58:02.957Z,7.10
2018-12-02T02:00:31.877Z,7.37
2018-12-02T02:03:00.836Z,6.27
2018-12-02T02:05:30.250Z,4.60
2018-12-02T02:07:59.042Z,4.20
2018-12-02T02:10:29.381Z,5.37
2018-12-02T02:12:58.370Z,4.57
2018-12-02T02:15:27.211Z,5.07
2018-12-02T02:17:55.988Z,7.17
2018-12-02T02:20:25.655Z,4.70
2018-12-02T02:22:54.445Z,4.90
2018-12-02T02:35:34.133Z,4.40
2018-12-02T02:38:03.767Z,10.13
2018-12-02T02:40:32.565Z,4.83
2018-12-02T02:43:01.505Z,6.73
2018-12-02T02:45:30.394Z,5.73
2018-12-02T02:48:03.479Z,4.80
2018-12-02T02:50:33.511Z,7.90
2018-12-02T02:53:03.362Z,7.80
2018-12-02T02:55:32.326Z,4.93
2018-12-02T02:58:01.211Z,7.13
2018-12-02T03:00:30.063Z,5.97
2018-12-02T03:02:58.954Z,11.00
2018-12-02T03:05:33.776Z,3.93
2018-12-02T03:08:02.691Z,6.47
2018-12-02T03:10:31.589Z,9.43
2018-12-02T03:13:02.959Z,5.30
2018-12-02T03:15:31.729Z,6.23
2018-12-02T03:18:00.447Z,5.70
2018-12-02T03:20:30.266Z,7.17
2018-12-02T03:22:59.087Z,6.17
2018-12-02T03:25:28.029Z,4.80
2018-12-02T03:27:57.201Z,5.40
2018-12-02T03:30:26.335Z,5.30
2018-12-02T03:32:55.231Z,7.27
2018-12-02T03:35:25.944Z,8.47
2018-12-02T03:37:55.658Z,4.83
2018-12-02T03:40:28.025Z,6.70
2018-12-02T03:42:57.908Z,4.53
2018-12-02T03:45:28.786Z,5.53
2018-12-02T03:47:58.385Z,4.70
2018-12-02T03:50:28.165Z,9.00
2018-12-02T03:52:56.939Z,9.33
2018-12-02T03:55:25.704Z,6.70
2018-12-02T03:57:54.584Z,4.63
2018-12-02T04:00:25.373Z,5.00
2018-12-02T04:02:57.078Z,7.10
2018-12-02T04:05:26.530Z,5.00
2018-12-02T04:07:55.340Z,5.90
2018-12-02T04:10:24.238Z,7.63
2018-12-02T04:12:53.451Z,8.00
2018-12-02T04:15:25.433Z,6.03
2018-12-02T04:17:54.280Z,6.30
2018-12-02T04:20:23.180Z,4.17
2018-12-02T04:22:52.649Z,5.77
2018-12-02T04:25:23.385Z,5.60
2018-12-02T04:27:53.537Z,14.37
2018-12-02T04:30:22.909Z,10.73
2018-12-02T04:32:52.402Z,5.73
2018-12-02T04:35:22.083Z,5.80
2018-12-02T04:37:51.059Z,6.53
2018-12-02T04:40:19.889Z,6.80
2018-12-02T04:42:49.769Z,4.73
2018-12-02T04:45:19.588Z,7.03
2018-12-02T04:47:48.823Z,4.77
2018-12-02T04:50:24.324Z,9.80
2018-12-02T04:52:53.078Z,5.07
2018-12-02T04:55:21.930Z,5.83
2018-12-02T04:57:50.714Z,7.37
2018-12-02T05:00:21.008Z,6.80
2018-12-02T05:02:51.540Z,4.77
2018-12-02T05:05:22.239Z,6.13
2018-12-02T05:07:51.233Z,6.03
2018-12-02T05:10:20.639Z,5.80
2018-12-02T05:12:49.961Z,6.07
2018-12-02T05:15:19.894Z,5.90
2018-12-02T05:17:48.615Z,5.30
2018-12-02T05:20:19.359Z,7.47
2018-12-02T05:22:48.090Z,4.70
2018-12-02T05:25:18.480Z,5.20
2018-12-02T05:27:46.295Z,5.63
2018-12-02T05:30:17.895Z,7.43
2018-12-02T05:32:47.869Z,6.27
2018-12-02T05:35:16.599Z,4.70
2018-12-02T05:37:45.531Z,4.30
2018-12-02T05:40:17.202Z,7.23
2018-12-02T05:42:46.102Z,5.57
2018-12-02T05:45:15.877Z,8.73
2018-12-02T05:47:44.794Z,10.67
2018-12-02T05:50:25.026Z,6.20
2018-12-02T05:52:56.525Z,6.70
2018-12-02T05:55:29.484Z,5.80
2018-12-02T05:57:58.248Z,6.70
2018-12-02T06:00:27.148Z,8.80
2018-12-02T06:02:56.612Z,5.03
2018-12-02T06:05:25.626Z,4.13
2018-12-02T06:07:54.451Z,4.50
2018-12-02T06:10:23.543Z,8.03
2018-12-02T06:12:52.313Z,6.57
2018-12-02T06:15:21.584Z,4.30
2018-12-02T06:17:50.406Z,2.70
2018-12-02T06:20:21.058Z,3.33
2018-12-02T06:22:51.583Z,3.93
2018-12-02T06:25:20.421Z,2.70
2018-12-02T06:27:49.238Z,3.47
2018-12-02T06:30:20.868Z,9.80
2018-12-02T06:32:50.811Z,3.10
2018-12-02T06:35:19.723Z,3.10
2018-12-02T06:37:48.596Z,4.30
2018-12-02T06:40:18.569Z,4.00
2018-12-02T06:42:47.371Z,4.33
2018-12-02T06:45:16.239Z,3.07
2018-12-02T06:47:45.082Z,6.17
2018-12-02T06:50:15.874Z,3.83
2018-12-02T06:52:44.727Z,3.40
2018-12-02T06:55:24.240Z,3.57
2018-12-02T06:57:58.389Z,3.30
2018-12-02T07:00:38.469Z,3.43
2018-12-02T07:05:22.754Z,3.70
2018-12-02T07:07:51.488Z,4.17
2018-12-02T07:10:20.394Z,4.97
2018-12-02T07:12:49.202Z,3.73
2018-12-02T07:15:18.233Z,3.93
2018-12-02T07:17:50.922Z,4.10
2018-12-02T07:20:21.812Z,3.80
2018-12-02T07:22:52.662Z,3.97
2018-12-02T07:25:25.658Z,7.70
2018-12-02T07:27:54.441Z,4.80
2018-12-02T07:30:25.110Z,6.43
2018-12-02T07:32:52.472Z,4.33
2018-12-02T07:35:21.288Z,3.60
2018-12-02T07:37:52.357Z,4.30
2018-12-02T07:40:30.246Z,5.57
2018-12-02T07:42:59.407Z,5.77
2018-12-02T07:45:28.182Z,5.10
2018-12-02T07:47:56.983Z,4.33
2018-12-02T07:50:25.867Z,4.83
2018-12-02T07:52:54.632Z,5.80
2018-12-02T07:55:23.554Z,7.37
2018-12-02T07:57:52.358Z,4.20
2018-12-02T08:00:21.231Z,4.80
2018-12-02T08:02:50.099Z,5.20
2018-12-02T08:05:19.041Z,10.07
2018-12-02T08:07:49.329Z,8.93
2018-12-02T08:10:18.824Z,6.53
2018-12-02T08:12:48.910Z,6.13
2018-12-02T08:15:19.658Z,6.73
2018-12-02T08:17:48.380Z,8.03
2018-12-02T08:20:17.977Z,4.60
2018-12-02T08:22:51.368Z,3.60
2018-12-02T08:25:17.411Z,5.17
2018-12-02T08:27:46.411Z,6.10
2018-12-02T08:30:20.049Z,6.97
2018-12-02T08:32:48.877Z,6.83
2018-12-02T08:35:18.769Z,8.00
2018-12-02T08:37:49.773Z,5.90
2018-12-02T08:40:19.700Z,5.30
2018-12-02T08:42:48.587Z,6.00
2018-12-02T08:45:18.444Z,8.63
2018-12-02T08:47:47.766Z,10.93
2018-12-02T08:50:18.378Z,7.53
2018-12-02T08:52:48.216Z,11.57
2018-12-02T08:55:18.511Z,12.50
2018-12-02T08:57:49.579Z,10.43
2018-12-02T09:00:20.498Z,6.87
2018-12-02T09:02:54.419Z,9.27
2018-12-02T09:05:23.817Z,6.13
2018-12-02T09:07:53.417Z,11.23
2018-12-02T09:10:24.355Z,8.50
2018-12-02T09:12:55.614Z,5.60
2018-12-02T09:15:24.390Z,8.03
2018-12-02T09:17:56.003Z,7.10
2018-12-02T09:20:27.228Z,8.50
2018-12-02T09:22:57.116Z,6.43
2018-12-02T09:25:26.260Z,5.20
2018-12-02T09:27:55.092Z,6.67
2018-12-02T09:30:26.432Z,7.00
2018-12-02T09:32:55.335Z,7.27
2018-12-02T09:35:24.482Z,9.53
2018-12-02T09:37:53.569Z,6.13
2018-12-02T09:40:22.655Z,8.50
2018-12-02T09:42:52.771Z,5.13
2018-12-02T09:45:24.054Z,5.20
2018-12-02T09:47:53.405Z,6.70
2018-12-02T09:50:22.496Z,12.53
2018-12-02T09:52:51.490Z,7.93
2018-12-02T09:55:36.739Z,9.30
2018-12-02T09:58:07.311Z,10.43
2018-12-02T10:00:36.467Z,7.97
2018-12-02T10:03:07.133Z,10.50
2018-12-02T10:05:36.180Z,7.73
2018-12-02T10:08:05.335Z,12.60
2018-12-02T10:10:34.401Z,7.73
2018-12-02T10:13:05.316Z,12.00
2018-12-02T10:15:34.285Z,7.10
2018-12-02T10:18:03.721Z,9.93
2018-12-02T10:20:32.630Z,6.70
2018-12-02T10:23:01.644Z,7.67
2018-12-02T10:25:31.249Z,9.10
2018-12-02T10:28:00.328Z,7.60
2018-12-02T10:30:29.442Z,10.13
2018-12-02T10:32:58.614Z,5.23
2018-12-02T10:35:29.375Z,7.23
2018-12-02T10:37:58.297Z,3.13
2018-12-02T10:40:28.035Z,3.97
2018-12-02T10:42:56.897Z,5.93
2018-12-02T10:45:27.158Z,7.97
2018-12-02T10:47:57.772Z,9.80
2018-12-02T10:50:28.044Z,6.70
2018-12-02T10:52:58.191Z,9.47
2018-12-02T10:56:00.613Z,5.00
2018-12-02T10:58:35.854Z,8.23
2018-12-02T11:01:10.793Z,8.07
2018-12-02T11:03:39.894Z,4.30
2018-12-02T11:06:08.938Z,6.13
2018-12-02T11:08:37.827Z,7.63
2018-12-02T11:11:07.049Z,6.77
2018-12-02T11:13:36.360Z,12.30
2018-12-02T11:16:05.726Z,4.90
2018-12-02T11:18:35.291Z,4.03
2018-12-02T11:21:04.913Z,8.37
2018-12-02T11:23:34.506Z,7.03
2018-12-02T11:26:04.623Z,3.90
2018-12-02T11:28:35.452Z,6.50
2018-12-02T11:31:04.674Z,3.30
2018-12-02T11:33:34.517Z,9.73
2018-12-02T11:36:04.539Z,6.57
2018-12-02T11:38:33.493Z,6.13
2018-12-02T11:41:02.555Z,6.40
2018-12-02T11:43:31.869Z,8.27
2018-12-02T11:46:01.853Z,8.37
2018-12-02T11:48:32.583Z,5.07
2018-12-02T11:51:02.307Z,8.20
2018-12-02T11:53:31.971Z,6.13
2018-12-02T11:56:00.818Z,6.73
2018-12-02T11:58:29.826Z,6.17
2018-12-02T12:00:58.790Z,8.07
2018-12-02T12:03:29.796Z,5.47
2018-12-02T12:05:57.947Z,5.60
2018-12-02T12:08:29.511Z,7.40
2018-12-02T12:10:59.616Z,4.80
2018-12-02T12:13:29.397Z,4.07
2018-12-02T12:15:58.546Z,6.60
2018-12-02T12:18:28.738Z,6.63
2018-12-02T12:20:59.548Z,6.20
2018-12-02T12:23:29.106Z,9.07
2018-12-02T12:25:58.457Z,7.23
2018-12-02T12:28:28.366Z,5.10
2018-12-02T12:30:57.272Z,4.93
2018-12-02T12:33:26.403Z,7.23
2018-12-02T12:35:55.386Z,12.67
2018-12-02T12:38:26.780Z,5.93
2018-12-02T12:40:56.165Z,6.07
2018-12-02T12:43:30.940Z,7.43
2018-12-02T12:46:00.853Z,7.57
2018-12-02T12:48:30.170Z,5.07
2018-12-02T12:50:59.509Z,5.37
2018-12-02T12:53:29.829Z,10.47
2018-12-02T12:55:59.325Z,10.73
2018-12-02T12:58:29.196Z,5.40
2018-12-02T13:00:59.270Z,6.03
2018-12-02T13:03:28.914Z,4.73
2018-12-02T13:05:58.067Z,5.07
2018-12-02T13:08:26.932Z,6.47
2018-12-02T13:10:55.960Z,7.33
2018-12-02T13:16:27.203Z,6.90
2018-12-02T13:18:57.083Z,4.87
2018-12-02T13:21:26.011Z,3.60
2018-12-02T13:25:32.166Z,3.10
2018-12-02T13:39:44.229Z,5.43
2018-12-02T13:42:13.177Z,8.57
2018-12-02T13:44:43.488Z,5.60
2018-12-02T13:47:13.487Z,6.50
2018-12-02T13:49:43.529Z,5.00
2018-12-02T13:52:12.752Z,3.50
2018-12-02T13:54:41.508Z,3.80
2018-12-02T14:00:15.835Z,3.53
2018-12-02T14:03:01.270Z,3.17
2018-12-02T14:05:30.581Z,3.80
2018-12-02T14:08:00.420Z,3.03
2018-12-02T14:10:29.517Z,3.07
2018-12-02T14:13:04.344Z,5.83
2018-12-02T14:16:00.365Z,3.43
2018-12-02T14:18:44.348Z,2.63
2018-12-02T14:21:24.148Z,2.80
2018-12-02T14:23:53.933Z,3.37
2018-12-02T14:26:22.999Z,4.10
2018-12-02T14:28:55.244Z,2.50
2018-12-02T14:31:25.101Z,3.07
2018-12-02T14:33:55.355Z,5.33
2018-12-02T14:36:24.442Z,4.27
2018-12-02T14:38:54.307Z,2.13
2018-12-02T14:41:23.689Z,3.00
2018-12-02T14:43:52.592Z,2.43
2018-12-02T14:46:21.658Z,1.50
2018-12-02T14:48:50.989Z,4.40
2018-12-02T14:51:19.949Z,3.80
2018-12-02T14:53:50.436Z,2.50
2018-12-02T14:56:19.394Z,4.10
2018-12-02T14:58:49.440Z,11.13
2018-12-02T15:01:18.667Z,6.90
2018-12-02T15:06:50.677Z,1.87
2018-12-02T15:12:10.709Z,2.30
2018-12-02T15:23:20.101Z,1.47
2018-12-02T15:25:48.913Z,2.23
2018-12-02T15:28:19.041Z,2.70
2018-12-02T15:30:48.677Z,2.43
2018-12-02T15:33:17.563Z,2.00
2018-12-02T15:35:46.582Z,1.70
2018-12-02T15:38:15.442Z,3.10
2018-12-02T15:40:45.356Z,4.43
2018-12-02T15:43:14.544Z,2.07
2018-12-02T15:45:43.581Z,2.00
2018-12-02T15:48:13.856Z,1.60
2018-12-02T15:50:43.180Z,2.17
2018-12-02T15:53:12.164Z,2.70
2018-12-02T15:55:41.128Z,2.47
2018-12-02T15:58:11.816Z,1.60
2018-12-02T16:00:43.009Z,3.43
2018-12-02T16:03:12.515Z,2.10
2018-12-02T16:05:41.612Z,2.93
2018-12-02T16:08:10.768Z,1.57
2018-12-02T16:10:39.794Z,3.47
2018-12-02T16:13:11.188Z,3.47
2018-12-02T16:15:40.590Z,3.07
2018-12-02T16:18:13.780Z,2.70
2018-12-02T16:20:49.523Z,2.40
2018-12-02T16:23:20.901Z,2.67
2018-12-02T16:25:49.962Z,3.37
2018-12-02T16:28:19.110Z,2.23
2018-12-02T16:30:49.217Z,4.03
2018-12-02T16:33:18.182Z,2.83
2018-12-02T16:35:47.277Z,3.20
2018-12-02T16:38:16.390Z,3.07
2018-12-02T16:40:46.179Z,1.83
2018-12-02T16:43:15.181Z,2.70
2018-12-02T16:45:44.289Z,3.07
2018-12-02T16:48:13.222Z,3.30
2018-12-02T16:50:44.483Z,2.50
2018-12-02T16:53:22.508Z,3.20
2018-12-02T16:56:02.897Z,2.60
2018-12-02T16:58:54.550Z,2.90
2018-12-02T17:01:24.933Z,3.00
2018-12-02T17:03:55.932Z,6.90
2018-12-02T17:06:25.027Z,2.23
2018-12-02T17:08:54.868Z,6.70
2018-12-02T17:11:24.423Z,1.50
2018-12-02T17:13:53.299Z,5.70
2018-12-02T17:16:22.594Z,1.83
2018-12-02T17:18:51.640Z,1.70
2018-12-02T17:21:20.871Z,1.73
2018-12-02T17:23:50.302Z,3.07
2018-12-02T17:26:19.172Z,1.90
2018-12-02T17:28:48.229Z,7.63
2018-12-02T17:31:19.154Z,1.60
2018-12-02T17:33:48.110Z,3.90
2018-12-02T17:36:17.237Z,2.27
2018-12-02T17:38:48.574Z,2.77
2018-12-02T17:41:17.570Z,1.67
2018-12-02T17:43:46.550Z,1.63
2018-12-02T17:46:15.422Z,1.60
2018-12-02T17:48:44.312Z,2.10
2018-12-02T17:51:14.367Z,2.83
2018-12-02T17:53:43.658Z,1.80
2018-12-02T17:56:12.670Z,1.90
2018-12-02T17:58:41.859Z,2.07
2018-12-02T18:01:10.831Z,3.10
2018-12-02T18:03:39.717Z,2.23
2018-12-02T18:06:10.523Z,2.70
2018-12-02T18:08:39.778Z,2.03
2018-12-02T18:11:08.619Z,2.87
2018-12-02T18:13:37.742Z,3.10
2018-12-02T18:16:06.676Z,4.10
2018-12-02T18:18:36.614Z,2.40
2018-12-02T18:21:05.643Z,2.40
2018-12-02T18:23:34.633Z,2.23
2018-12-02T18:26:03.627Z,4.37
2018-12-02T18:28:33.232Z,2.73
2018-12-02T18:31:02.372Z,1.60
2018-12-02T18:33:31.848Z,2.53
2018-12-02T18:36:02.785Z,4.37
2018-12-02T18:38:34.369Z,5.80
2018-12-02T18:41:07.539Z,6.43
2018-12-02T18:43:36.755Z,3.47
2018-12-02T18:46:06.226Z,1.77
2018-12-02T18:48:35.256Z,2.90
2018-12-02T18:51:04.466Z,4.10
2018-12-02T18:53:33.272Z,1.87
2018-12-02T18:56:02.301Z,2.30
2018-12-02T18:58:31.680Z,3.37
2018-12-02T19:01:00.637Z,4.73
2018-12-02T19:03:30.623Z,2.17
2018-12-02T19:05:59.513Z,3.50
2018-12-02T19:08:28.526Z,2.30
2018-12-02T19:10:58.593Z,1.80
2018-12-02T19:13:27.622Z,2.83
2018-12-02T19:15:57.914Z,2.23
2018-12-02T19:18:27.968Z,2.07
2018-12-02T19:21:00.713Z,1.83
2018-12-02T19:23:32.473Z,2.10
2018-12-02T19:26:01.738Z,2.10
2018-12-02T19:28:31.797Z,1.97
2018-12-02T19:31:01.055Z,1.20
2018-12-02T19:33:30.225Z,2.40
2018-12-02T19:36:09.961Z,1.13
2018-12-02T19:38:39.040Z,2.23
2018-12-02T19:41:07.983Z,3.67
2018-12-02T19:43:36.772Z,1.63
2018-12-02T19:46:07.150Z,1.87
2018-12-02T19:48:36.484Z,1.57
2018-12-02T19:51:05.799Z,2.50
2018-12-02T19:53:34.845Z,2.23
2018-12-02T19:56:04.307Z,2.20
2018-12-02T19:58:33.317Z,4.03
2018-12-02T20:01:02.266Z,3.07
2018-12-02T20:03:31.156Z,1.73
2018-12-02T20:06:00.356Z,2.53
2018-12-02T20:08:29.059Z,3.00
2018-12-02T20:10:57.907Z,1.50
2018-12-02T20:13:27.047Z,2.23
2018-12-02T20:16:01.910Z,1.67
2018-12-02T20:18:30.673Z,1.60
2018-12-02T20:21:01.356Z,1.30
2018-12-02T20:23:35.602Z,1.87
2018-12-02T20:26:08.097Z,1.20
2018-12-02T20:28:43.003Z,2.10
2018-12-02T20:31:17.028Z,1.40
2018-12-02T20:33:47.554Z,1.00
2018-12-02T20:36:16.605Z,3.33
2018-12-02T20:41:38.093Z,2.00
2018-12-02T20:44:07.827Z,1.90
2018-12-02T20:46:36.806Z,2.70
2018-12-02T20:49:06.027Z,1.30
2018-12-02T20:51:35.056Z,1.70
2018-12-02T20:54:04.008Z,1.50
2018-12-02T20:56:32.880Z,1.20
2018-12-02T20:59:02.195Z,1.00
2018-12-02T21:01:31.474Z,1.10
2018-12-02T21:04:00.636Z,1.47
2018-12-02T21:06:29.715Z,1.93
2018-12-02T21:08:58.471Z,1.53
2018-12-02T21:11:27.357Z,2.10
2018-12-02T21:13:56.255Z,1.80
2018-12-02T21:16:25.123Z,2.00
2018-12-02T21:18:53.987Z,3.17
2018-12-02T21:21:22.824Z,1.20
2018-12-02T21:23:52.835Z,3.63
2018-12-02T21:26:21.767Z,2.17
2018-12-02T21:28:52.216Z,1.97
2018-12-02T21:31:21.263Z,1.40
2018-12-02T21:33:50.118Z,3.20
2018-12-02T21:36:19.055Z,7.10
2018-12-02T21:38:47.891Z,3.30
2018-12-02T21:41:17.122Z,2.47
2018-12-02T21:43:46.074Z,4.50
2018-12-02T21:46:14.897Z,2.40
2018-12-02T21:48:43.838Z,1.30
2018-12-02T21:51:12.751Z,2.13
2018-12-02T21:53:41.499Z,1.20
2018-12-02T21:56:10.297Z,3.40
2018-12-02T21:58:39.942Z,2.50
2018-12-02T22:01:15.353Z,1.83
2018-12-02T22:03:44.443Z,2.17
2018-12-02T22:06:13.323Z,2.67
2018-12-02T22:08:42.544Z,3.30
2018-12-02T22:11:11.400Z,2.60
2018-12-02T22:13:43.450Z,5.07
2018-12-02T22:16:09.148Z,1.30
2018-12-02T22:18:38.170Z,3.10
2018-12-02T22:21:07.089Z,1.53
2018-12-02T22:23:35.984Z,4.17
2018-12-02T22:26:04.851Z,2.17
2018-12-02T22:28:33.916Z,4.50
2018-12-02T22:31:03.056Z,5.37
2018-12-02T22:33:33.386Z,4.30
2018-12-02T22:36:02.803Z,3.40
2018-12-02T22:38:32.808Z,2.70
2018-12-02T22:41:02.735Z,2.27
2018-12-02T22:43:31.509Z,3.30
2018-12-02T22:46:00.487Z,5.13
2018-12-02T22:48:29.649Z,2.17
2018-12-02T22:50:58.797Z,8.50
2018-12-02T22:53:27.788Z,5.97
2018-12-02T22:55:56.658Z,5.53
2018-12-02T22:58:26.553Z,2.87
2018-12-02T23:01:00.568Z,1.70
2018-12-02T23:03:30.505Z,3.40
2018-12-02T23:06:00.041Z,5.30
2018-12-02T23:08:29.107Z,3.57
2018-12-02T23:10:58.091Z,1.93
2018-12-02T23:13:26.993Z,1.70
2018-12-02T23:15:55.845Z,2.43
2018-12-02T23:18:24.803Z,5.07
2018-12-02T23:20:53.662Z,3.23
2018-12-02T23:23:22.707Z,2.10
2018-12-02T23:25:51.627Z,3.00
2018-12-02T23:28:20.512Z,1.70
2018-12-02T23:30:49.407Z,1.27
2018-12-02T23:33:18.352Z,1.73
2018-12-02T23:35:47.251Z,1.50
2018-12-02T23:38:16.219Z,2.00
2018-12-02T23:40:45.542Z,1.77
2018-12-02T23:43:15.052Z,2.30
2018-12-02T23:45:44.999Z,2.23
2018-12-02T23:48:12.900Z,1.00
2018-12-02T23:50:41.729Z,1.40
2018-12-02T23:53:10.627Z,1.63
2018-12-02T23:55:39.519Z,1.40
2018-12-02T23:58:08.511Z,1.63
